createdAt,value
2023-05-02T00:08:16.672Z,9.7
2023-05-02T00:18:17.022Z,10.3
2023-05-02T00:28:17.388Z,10.5
2023-05-02T00:38:17.526Z,9.8
2023-05-02T00:48:17.187Z,8.2
2023-05-02T00:58:17.570Z,10.5
2023-05-02T01:08:18.333Z,6.2
2023-05-02T01:18:17.687Z,10.2
2023-05-02T01:28:19.538Z,5.9
2023-05-02T01:38:22.945Z,5.2
2023-05-02T01:48:26.356Z,4.8
2023-05-02T01:58:29.938Z,4.5
2023-05-02T02:08:33.391Z,4.3
2023-05-02T02:18:36.722Z,3.8
2023-05-02T02:28:40.148Z,4.3
2023-05-02T02:38:43.560Z,4.1
2023-05-02T02:48:47.228Z,4.4
2023-05-02T02:58:49.230Z,4.4
2023-05-02T03:08:08.451Z,3.1
2023-05-02T03:18:11.756Z,4.3
2023-05-02T03:28:15.293Z,5.1
2023-05-02T03:38:18.591Z,4.4
2023-05-02T03:48:28.902Z,3.1
2023-05-02T03:58:46.273Z,1.4
2023-05-02T04:09:06.535Z,3
2023-05-02T04:19:26.655Z,3.4
2023-05-02T04:29:45.749Z,2
2023-05-02T04:40:07.583Z,1.5
2023-05-02T04:50:27.980Z,1.9
2023-05-02T05:00:49.893Z,1.1
2023-05-02T05:11:10.379Z,1.9
2023-05-02T05:21:31.035Z,12.8
2023-05-02T05:31:50.963Z,-0.6
2023-05-02T05:42:12.194Z,-1.6
2023-05-02T05:52:34.714Z,-2.1
2023-05-02T06:02:56.725Z,8.9
2023-05-02T06:13:12.296Z,12.4
2023-05-02T06:23:29.854Z,10.9
2023-05-02T06:33:46.240Z,13.5
2023-05-02T06:44:04.528Z,14.9
2023-05-02T06:54:21.758Z,15.7
2023-05-02T07:04:38.946Z,14.7
2023-05-02T07:14:55.114Z,17.3
2023-05-02T07:25:10.683Z,17.6
2023-05-02T07:35:26.271Z,20.1
2023-05-02T07:45:40.819Z,22
2023-05-02T07:55:57.706Z,22.6
2023-05-02T08:06:13.275Z,3.6
2023-05-02T08:16:30.966Z,2.4
2023-05-02T08:26:50.752Z,4.1
2023-05-02T08:37:06.056Z,21
2023-05-02T08:47:22.889Z,27.5
2023-05-02T08:57:37.039Z,16.1
2023-05-02T09:08:23.256Z,8.3
2023-05-02T09:18:43.669Z,11.5
2023-05-02T09:29:04.157Z,27.9
2023-05-02T09:39:22.464Z,8
2023-05-02T09:49:35.344Z,6.7
2023-05-02T09:59:51.040Z,15.1
2023-05-02T10:10:03.740Z,9.9
2023-05-02T10:20:10.751Z,9.4
2023-05-02T10:30:25.764Z,14.4
2023-05-02T10:40:42.873Z,8
2023-05-02T10:51:04.206Z,5.4
2023-05-02T11:01:25.629Z,8.3
2023-05-02T11:11:38.155Z,12.4
2023-05-02T11:21:50.896Z,8.7
2023-05-02T11:32:03.368Z,9.8
2023-05-02T11:42:23.155Z,6.4
2023-05-02T11:52:41.114Z,17.9
2023-05-02T12:03:01.963Z,15.2
2023-05-02T12:13:19.762Z,14.4
2023-05-02T12:23:37.387Z,19.9
2023-05-02T12:33:52.858Z,17.3
2023-05-02T12:44:10.712Z,18.9
2023-05-02T12:54:25.480Z,19.8
2023-05-02T13:04:39.663Z,19.3
2023-05-02T13:14:52.220Z,19.3
2023-05-02T13:25:05.441Z,18.9
2023-05-02T13:35:17.010Z,16.4
2023-05-02T13:45:26.418Z,13.9
2023-05-02T13:55:32.803Z,14.3
2023-05-02T14:05:36.851Z,14.9
2023-05-02T14:15:41.010Z,14.4
2023-05-02T14:25:45.075Z,13.8
2023-05-02T14:35:49.003Z,14.4
2023-05-02T14:45:53.033Z,14.3
2023-05-02T14:55:57.159Z,13.8
2023-05-02T15:08:11.401Z,14.7
2023-05-02T15:18:15.007Z,13.3
2023-05-02T15:28:18.506Z,14
2023-05-02T15:38:21.904Z,13.9
2023-05-02T15:48:23.814Z,14.5
2023-05-02T15:58:24.080Z,18.8
2023-05-02T16:08:24.649Z,18.6
2023-05-02T16:18:25.444Z,18.6
2023-05-02T16:28:25.507Z,16.9
2023-05-02T16:38:25.732Z,16.4
2023-05-02T16:48:26.377Z,17.6
2023-05-02T16:58:27.257Z,13.9
2023-05-02T17:08:27.580Z,13
2023-05-02T17:18:28.443Z,16.8
2023-05-02T17:28:29.731Z,12.2
2023-05-02T17:38:29.523Z,16.3
2023-05-02T17:48:29.553Z,16.1
2023-05-02T17:58:30.763Z,16.6
2023-05-02T18:08:30.186Z,16.3
2023-05-02T18:18:30.134Z,14.4
2023-05-02T18:28:30.818Z,15.7
2023-05-02T18:38:30.938Z,15.6
2023-05-02T18:48:32.445Z,14.1
2023-05-02T18:58:32.341Z,15.6
2023-05-02T19:08:32.382Z,15.8
2023-05-02T19:18:32.361Z,15.1
2023-05-02T19:28:32.144Z,14.6
2023-05-02T19:38:33.264Z,11.8
2023-05-02T19:48:33.362Z,12.9
2023-05-02T19:58:33.103Z,15
2023-05-02T20:08:32.755Z,12.8
2023-05-02T20:18:32.804Z,11.2
2023-05-02T20:28:32.745Z,14.6
2023-05-02T20:38:32.453Z,12.1
2023-05-02T20:48:31.821Z,14.6
2023-05-02T20:58:31.783Z,12.2
2023-05-02T21:08:07.600Z,12.9
2023-05-02T21:18:07.902Z,13.6
2023-05-02T21:28:09.321Z,12.1
2023-05-02T21:38:09.561Z,14.3
2023-05-02T21:48:09.827Z,13.8
2023-05-02T21:58:10.945Z,13.3
2023-05-02T22:08:12.145Z,14.2
2023-05-02T22:18:14.449Z,13.4
2023-05-02T22:28:15.572Z,13.1
2023-05-02T22:38:17.299Z,11.5
2023-05-02T22:48:19.017Z,12.5
2023-05-02T22:58:20.887Z,8.4
2023-05-02T23:08:21.902Z,9.4
2023-05-02T23:18:21.730Z,11.1
2023-05-02T23:28:21.527Z,9.6
2023-05-02T23:38:21.268Z,11.3
2023-05-02T23:48:21.366Z,9.4
2023-05-02T23:58:21.141Z,12.6
